createdAt,value
2018-04-25T00:00:18.548Z,48.85
2018-04-25T00:01:18.529Z,47.89
2018-04-25T00:02:18.508Z,48.47
2018-04-25T00:03:18.488Z,49.43
2018-04-25T00:04:18.473Z,48.85
2018-04-25T00:05:18.449Z,48.75
2018-04-25T00:06:18.429Z,48.09
2018-04-25T00:07:18.409Z,45.96
2018-04-25T00:08:18.393Z,45.96
2018-04-25T00:09:18.371Z,45.48
2018-04-25T00:10:18.351Z,44.07
2018-04-25T00:11:18.331Z,45.41
2018-04-25T00:12:18.312Z,44.74
2018-04-25T00:13:18.292Z,43.98
2018-04-25T00:14:18.272Z,43.40
2018-04-25T00:15:18.252Z,42.73
2018-04-25T00:16:18.232Z,45.31
2018-04-25T00:17:18.212Z,46.84
2018-04-25T00:18:18.196Z,46.46
2018-04-25T00:19:18.173Z,46.08
2018-04-25T00:20:18.153Z,47.42
2018-04-25T00:21:18.136Z,47.32
2018-04-25T00:22:18.116Z,45.51
2018-04-25T00:23:18.094Z,45.03
2018-04-25T00:24:18.096Z,45.41
2018-04-25T00:25:18.056Z,46.08
2018-04-25T00:26:18.038Z,46.27
2018-04-25T00:27:18.016Z,46.37
2018-04-25T00:28:17.996Z,44.55
2018-04-25T00:29:17.977Z,46.27
2018-04-25T00:30:17.956Z,45.60
2018-04-25T00:31:17.937Z,46.75
2018-04-25T00:32:17.917Z,45.98
2018-04-25T00:33:17.898Z,45.03
2018-04-25T00:34:17.879Z,44.45
2018-04-25T00:35:17.858Z,44.84
2018-04-25T00:36:17.842Z,44.91
2018-04-25T00:37:17.821Z,43.86
2018-04-25T00:38:17.799Z,41.39
2018-04-25T00:39:17.778Z,42.83
2018-04-25T00:40:17.760Z,42.83
2018-04-25T00:41:17.738Z,41.49
2018-04-25T00:42:17.720Z,42.16
2018-04-25T00:43:17.699Z,41.66
2018-04-25T00:44:17.683Z,40.80
2018-04-25T00:45:17.662Z,40.70
2018-04-25T00:46:17.643Z,40.70
2018-04-25T00:47:17.620Z,40.42
2018-04-25T00:48:18.353Z,39.37
2018-04-25T00:49:17.580Z,41.56
2018-04-25T00:50:17.560Z,42.24
2018-04-25T00:51:17.539Z,42.33
2018-04-25T00:52:17.520Z,41.95
2018-04-25T00:53:18.352Z,40.92
2018-04-25T00:54:17.482Z,40.89
2018-04-25T00:55:17.464Z,39.56
2018-04-25T00:56:17.442Z,39.27
2018-04-25T00:57:17.421Z,40.63
2018-04-25T00:58:17.401Z,41.20
2018-04-25T00:59:17.380Z,39.67
2018-04-25T01:00:17.365Z,41.39
2018-04-25T01:01:17.341Z,44.26
2018-04-25T01:02:17.321Z,45.98
2018-04-25T01:03:17.301Z,47.32
2018-04-25T01:04:17.285Z,45.51
2018-04-25T01:05:17.261Z,46.08
2018-04-25T01:06:17.243Z,46.56
2018-04-25T01:07:17.221Z,44.55
2018-04-25T01:08:17.201Z,44.45
2018-04-25T01:09:17.181Z,47.80
2018-04-25T01:10:18.668Z,47.03
2018-04-25T01:11:17.140Z,47.03
2018-04-25T01:12:17.121Z,46.37
2018-04-25T01:13:17.101Z,46.75
2018-04-25T01:14:17.081Z,45.60
2018-04-25T01:15:17.060Z,45.31
2018-04-25T01:16:17.791Z,45.98
2018-04-25T01:17:17.021Z,46.46
2018-04-25T01:18:17.003Z,46.17
2018-04-25T01:19:16.982Z,44.93
2018-04-25T01:20:16.962Z,41.68
2018-04-25T01:21:16.941Z,42.73
2018-04-25T01:22:16.922Z,40.99
2018-04-25T01:23:16.903Z,41.39
2018-04-25T01:24:16.881Z,39.56
2018-04-25T01:25:16.861Z,39.48
2018-04-25T01:26:16.842Z,38.05
2018-04-25T01:27:16.821Z,37.85
2018-04-25T01:28:16.802Z,38.53
2018-04-25T01:29:16.781Z,39.84
2018-04-25T01:30:16.762Z,40.53
2018-04-25T01:31:16.739Z,39.96
2018-04-25T01:32:16.719Z,40.13
2018-04-25T01:33:16.699Z,39.56
2018-04-25T01:34:16.681Z,39.75
2018-04-25T01:35:16.659Z,39.86
2018-04-25T01:36:16.640Z,39.37
2018-04-25T01:37:16.620Z,40.80
2018-04-25T01:38:16.599Z,43.38
2018-04-25T01:39:16.579Z,42.24
2018-04-25T01:40:16.559Z,43.19
2018-04-25T01:41:16.540Z,44.74
2018-04-25T01:42:18.020Z,46.94
2018-04-25T01:43:16.498Z,52.29
2018-04-25T01:44:16.479Z,54.02
2018-04-25T01:45:16.459Z,54.49
2018-04-25T01:46:16.441Z,55.26
2018-04-25T01:47:16.418Z,56.40
2018-04-25T01:48:16.397Z,57.07
2018-04-25T01:49:16.377Z,58.12
2018-04-25T01:50:16.357Z,58.98
2018-04-25T01:51:16.337Z,58.80
2018-04-25T01:52:16.317Z,58.22
2018-04-25T01:53:16.297Z,56.21
2018-04-25T01:54:16.276Z,57.75
2018-04-25T01:55:16.258Z,58.61
2018-04-25T01:56:16.236Z,58.51
2018-04-25T01:57:16.216Z,60.52
2018-04-25T01:58:16.195Z,60.33
2018-04-25T01:59:16.175Z,59.94
2018-04-25T02:00:16.154Z,58.80
2018-04-25T02:01:16.135Z,57.46
2018-04-25T02:02:16.114Z,57.07
2018-04-25T02:03:16.093Z,58.22
2018-04-25T02:04:16.073Z,57.26
2018-04-25T02:05:16.053Z,55.13
2018-04-25T02:06:16.033Z,54.37
2018-04-25T02:07:16.014Z,52.48
2018-04-25T02:08:15.992Z,53.41
2018-04-25T02:09:15.974Z,51.60
2018-04-25T02:10:15.954Z,48.83
2018-04-25T02:11:15.932Z,49.21
2018-04-25T02:12:15.914Z,47.11
2018-04-25T02:13:15.891Z,46.82
2018-04-25T02:14:15.872Z,46.44
2018-04-25T02:15:15.851Z,45.77
2018-04-25T02:16:15.831Z,45.01
2018-04-25T02:17:15.810Z,45.48
2018-04-25T02:18:15.790Z,45.77
2018-04-25T02:19:15.770Z,44.34
2018-04-25T02:20:18.001Z,45.31
2018-04-25T02:21:15.730Z,49.49
2018-04-25T02:22:15.709Z,48.73
2018-04-25T02:23:15.692Z,46.06
2018-04-25T02:24:15.669Z,46.25
2018-04-25T02:25:15.649Z,47.68
2018-04-25T02:26:15.628Z,46.25
2018-04-25T02:27:15.607Z,43.09
2018-04-25T02:28:15.587Z,41.26
2018-04-25T02:29:15.567Z,39.94
2018-04-25T02:30:15.547Z,38.78
2018-04-25T02:31:15.528Z,38.58
2018-04-25T02:32:15.509Z,36.68
2018-04-25T02:33:15.486Z,35.82
2018-04-25T02:34:15.466Z,35.83
2018-04-25T02:35:15.446Z,36.02
2018-04-25T02:36:15.426Z,35.91
2018-04-25T02:37:15.405Z,35.26
2018-04-25T02:38:15.386Z,35.35
2018-04-25T02:39:15.367Z,34.49
2018-04-25T02:40:15.344Z,34.59
2018-04-25T02:41:15.323Z,34.20
2018-04-25T02:42:15.303Z,34.78
2018-04-25T02:43:15.283Z,33.83
2018-04-25T02:44:15.262Z,33.44
2018-04-25T02:45:15.243Z,35.55
2018-04-25T02:46:15.227Z,37.84
2018-04-25T02:47:15.201Z,38.12
2018-04-25T02:48:15.183Z,38.22
2018-04-25T02:49:15.163Z,38.32
2018-04-25T02:50:15.143Z,38.22
2018-04-25T02:51:15.123Z,37.07
2018-04-25T02:52:15.101Z,36.31
2018-04-25T02:53:15.081Z,36.88
2018-04-25T02:54:15.062Z,37.17
2018-04-25T02:55:15.041Z,37.36
2018-04-25T02:56:15.020Z,36.79
2018-04-25T02:57:15.000Z,37.93
2018-04-25T02:58:17.333Z,38.32
2018-04-25T02:59:14.959Z,37.93
2018-04-25T03:00:14.939Z,38.89
2018-04-25T03:01:14.927Z,38.98
2018-04-25T03:02:14.899Z,38.89
2018-04-25T03:03:14.881Z,38.89
2018-04-25T03:04:14.860Z,38.22
2018-04-25T03:05:14.839Z,38.89
2018-04-25T03:06:14.820Z,37.26
2018-04-25T03:07:14.798Z,38.51
2018-04-25T03:08:14.778Z,37.65
2018-04-25T03:09:14.759Z,37.93
2018-04-25T03:10:14.739Z,36.79
2018-04-25T03:11:14.719Z,37.84
2018-04-25T03:12:14.698Z,39.47
2018-04-25T03:13:14.678Z,39.94
2018-04-25T03:14:14.663Z,36.98
2018-04-25T03:15:14.638Z,37.17
2018-04-25T03:16:14.617Z,38.51
2018-04-25T03:17:14.596Z,37.84
2018-04-25T03:18:14.577Z,36.02
2018-04-25T03:19:14.555Z,35.83
2018-04-25T03:20:16.036Z,37.07
2018-04-25T03:21:14.515Z,37.55
2018-04-25T03:22:14.496Z,36.23
2018-04-25T03:23:14.475Z,36.90
2018-04-25T03:24:14.454Z,37.76
2018-04-25T03:25:14.435Z,37.66
2018-04-25T03:26:14.414Z,37.76
2018-04-25T03:27:14.392Z,37.66
2018-04-25T03:28:14.376Z,37.26
2018-04-25T03:29:14.353Z,36.88
2018-04-25T03:30:14.334Z,37.09
2018-04-25T03:31:14.317Z,36.88
2018-04-25T03:32:14.292Z,36.88
2018-04-25T03:33:14.272Z,35.08
2018-04-25T03:34:14.252Z,35.35
2018-04-25T03:35:14.232Z,35.93
2018-04-25T03:36:14.212Z,32.39
2018-04-25T03:37:14.193Z,31.72
2018-04-25T03:38:14.172Z,32.01
2018-04-25T03:39:14.152Z,31.92
2018-04-25T03:40:14.130Z,31.92
2018-04-25T03:41:14.110Z,31.72
2018-04-25T03:42:14.090Z,30.86
2018-04-25T03:43:14.070Z,31.63
2018-04-25T03:44:14.050Z,31.72
2018-04-25T03:45:14.036Z,30.86
2018-04-25T03:46:14.010Z,30.86
2018-04-25T03:47:13.988Z,31.53
2018-04-25T03:48:13.968Z,29.91
2018-04-25T03:49:13.949Z,29.81
2018-04-25T03:50:13.929Z,29.81
2018-04-25T03:51:13.909Z,29.91
2018-04-25T03:52:13.890Z,30.19
2018-04-25T03:53:13.866Z,29.24
2018-04-25T03:54:13.846Z,29.81
2018-04-25T03:55:13.825Z,28.28
2018-04-25T03:56:13.812Z,28.09
2018-04-25T03:57:13.785Z,27.42
2018-04-25T03:58:13.766Z,28.00
2018-04-25T03:59:13.883Z,28.86
2018-04-25T04:00:13.724Z,28.28
2018-04-25T04:01:13.703Z,27.71
2018-04-25T04:02:13.685Z,29.81
2018-04-25T04:03:13.663Z,30.00
2018-04-25T04:04:13.642Z,30.19
2018-04-25T04:05:13.625Z,29.62
2018-04-25T04:06:13.603Z,30.00
2018-04-25T04:07:13.582Z,30.38
2018-04-25T04:08:13.561Z,30.29
2018-04-25T04:09:13.541Z,31.15
2018-04-25T04:10:13.521Z,32.01
2018-04-25T04:11:13.500Z,31.72
2018-04-25T04:12:13.480Z,31.63
2018-04-25T04:13:13.459Z,32.10
2018-04-25T04:14:13.441Z,32.78
2018-04-25T04:15:13.417Z,33.83
2018-04-25T04:16:13.397Z,34.01
2018-04-25T04:17:13.377Z,32.29
2018-04-25T04:18:13.357Z,32.58
2018-04-25T04:19:13.337Z,32.39
2018-04-25T04:20:13.316Z,34.88
2018-04-25T04:21:13.296Z,34.88
2018-04-25T04:22:13.277Z,35.35
2018-04-25T04:23:13.255Z,35.26
2018-04-25T04:24:13.984Z,35.66
2018-04-25T04:25:13.215Z,36.79
2018-04-25T04:26:13.194Z,38.32
2018-04-25T04:27:13.179Z,39.47
2018-04-25T04:28:13.154Z,37.66
2018-04-25T04:29:13.134Z,37.74
2018-04-25T04:30:13.114Z,37.95
2018-04-25T04:31:13.093Z,39.20
2018-04-25T04:32:13.072Z,39.75
2018-04-25T04:33:13.052Z,39.67
2018-04-25T04:34:13.033Z,39.86
2018-04-25T04:35:13.010Z,39.67
2018-04-25T04:36:12.990Z,39.29
2018-04-25T04:37:12.973Z,39.29
2018-04-25T04:38:12.950Z,39.29
2018-04-25T04:39:12.928Z,38.89
2018-04-25T04:40:12.909Z,38.91
2018-04-25T04:41:12.889Z,38.22
2018-04-25T04:42:12.888Z,37.57
2018-04-25T04:43:12.856Z,36.69
2018-04-25T04:44:12.834Z,36.79
2018-04-25T04:45:12.808Z,38.24
2018-04-25T04:46:12.787Z,38.41
2018-04-25T04:47:12.768Z,37.85
2018-04-25T04:48:12.746Z,38.03
2018-04-25T04:49:12.727Z,39.00
2018-04-25T04:50:12.709Z,37.46
2018-04-25T04:51:12.685Z,38.53
2018-04-25T04:52:12.666Z,41.97
2018-04-25T04:53:12.647Z,43.21
2018-04-25T04:54:12.624Z,41.68
2018-04-25T04:55:12.605Z,41.01
2018-04-25T04:56:12.589Z,43.02
2018-04-25T04:57:12.564Z,42.83
2018-04-25T04:58:12.547Z,43.50
2018-04-25T04:59:12.524Z,43.21
2018-04-25T05:00:12.502Z,42.83
2018-04-25T05:01:12.482Z,42.25
2018-04-25T05:02:12.463Z,40.44
2018-04-25T05:03:12.443Z,39.67
2018-04-25T05:04:12.422Z,40.44
2018-04-25T05:05:12.403Z,40.63
2018-04-25T05:06:12.383Z,40.63
2018-04-25T05:07:12.362Z,42.93
2018-04-25T05:08:12.340Z,43.02
2018-04-25T05:09:12.321Z,41.39
2018-04-25T05:10:13.053Z,40.72
2018-04-25T05:11:12.282Z,41.97
2018-04-25T05:12:12.263Z,43.12
2018-04-25T05:13:12.278Z,42.16
2018-04-25T05:14:12.221Z,43.21
2018-04-25T05:15:12.201Z,44.26
2018-04-25T05:16:12.181Z,43.12
2018-04-25T05:17:12.161Z,45.60
2018-04-25T05:18:12.141Z,46.75
2018-04-25T05:19:12.121Z,47.92
2018-04-25T05:20:12.099Z,48.97
2018-04-25T05:21:12.080Z,48.88
2018-04-25T05:22:12.060Z,49.26
2018-04-25T05:23:12.048Z,51.17
2018-04-25T05:24:12.021Z,51.65
2018-04-25T05:25:12.003Z,52.32
2018-04-25T05:26:11.982Z,51.17
2018-04-25T05:27:11.961Z,52.42
2018-04-25T05:28:11.943Z,52.03
2018-04-25T05:29:11.920Z,51.65
2018-04-25T05:30:11.902Z,53.85
2018-04-25T05:31:11.880Z,50.86
2018-04-25T05:32:11.927Z,52.32
2018-04-25T05:33:11.841Z,53.28
2018-04-25T05:34:11.823Z,50.60
2018-04-25T05:35:11.801Z,50.70
2018-04-25T05:36:11.780Z,50.21
2018-04-25T05:37:11.761Z,53.94
2018-04-25T05:38:11.741Z,52.32
2018-04-25T05:39:11.721Z,55.29
2018-04-25T05:40:11.701Z,58.25
2018-04-25T05:41:11.682Z,56.34
2018-04-25T05:42:11.663Z,57.58
2018-04-25T05:43:11.642Z,58.92
2018-04-25T05:44:11.625Z,58.25
2018-04-25T05:45:11.603Z,57.39
2018-04-25T05:46:11.586Z,59.33
2018-04-25T05:47:11.562Z,60.77
2018-04-25T05:48:11.545Z,62.01
2018-04-25T05:49:11.524Z,61.31
2018-04-25T05:50:11.503Z,59.14
2018-04-25T05:51:11.487Z,59.23
2018-04-25T05:52:11.464Z,61.15
2018-04-25T05:53:11.444Z,60.10
2018-04-25T05:54:11.425Z,60.38
2018-04-25T05:55:11.406Z,58.47
2018-04-25T05:56:11.390Z,63.06
2018-04-25T05:57:11.366Z,67.27
2018-04-25T05:58:11.352Z,69.86
2018-04-25T05:59:11.329Z,67.47
2018-04-25T06:00:11.309Z,67.11
2018-04-25T06:01:11.289Z,68.27
2018-04-25T06:02:11.270Z,74.97
2018-04-25T06:03:11.249Z,73.44
2018-04-25T06:04:11.230Z,75.07
2018-04-25T06:05:11.212Z,76.60
2018-04-25T06:06:11.197Z,76.40
2018-04-25T06:07:11.225Z,73.72
2018-04-25T06:08:12.655Z,74.77
2018-04-25T06:09:11.135Z,74.01
2018-04-25T06:10:11.115Z,70.28
2018-04-25T06:11:11.097Z,82.63
2018-04-25T06:12:11.078Z,72.67
2018-04-25T06:13:11.058Z,70.66
2018-04-25T06:14:11.041Z,72.48
2018-04-25T06:15:11.024Z,73.91
2018-04-25T06:16:11.004Z,70.76
2018-04-25T06:17:10.983Z,67.41
2018-04-25T06:18:10.966Z,65.78
2018-04-25T06:19:10.944Z,68.65
2018-04-25T06:20:10.969Z,69.03
2018-04-25T06:21:10.906Z,71.42
2018-04-25T06:22:10.887Z,68.55
2018-04-25T06:23:10.868Z,68.65
2018-04-25T06:24:10.849Z,66.74
2018-04-25T06:25:10.830Z,64.92
2018-04-25T06:26:10.810Z,64.63
2018-04-25T06:27:10.791Z,63.19
2018-04-25T06:28:10.794Z,63.86
2018-04-25T06:29:10.753Z,63.10
2018-04-25T06:30:10.735Z,62.23
2018-04-25T06:31:10.714Z,71.52
2018-04-25T06:32:10.696Z,77.13
2018-04-25T06:33:10.677Z,72.44
2018-04-25T06:34:10.658Z,78.95
2018-04-25T06:35:10.638Z,78.86
2018-04-25T06:36:10.621Z,76.21
2018-04-25T06:37:10.601Z,70.09
2018-04-25T06:38:10.585Z,71.52
2018-04-25T06:39:10.563Z,73.15
2018-04-25T06:40:10.544Z,67.41
2018-04-25T06:41:10.530Z,70.18
2018-04-25T06:42:10.511Z,71.33
2018-04-25T06:43:10.486Z,73.24
2018-04-25T06:44:10.467Z,74.87
2018-04-25T06:45:10.447Z,78.32
2018-04-25T06:46:10.428Z,82.73
2018-04-25T06:47:10.409Z,88.47
2018-04-25T06:48:10.390Z,84.11
2018-04-25T06:49:10.371Z,82.00
2018-04-25T06:50:10.352Z,84.68
2018-04-25T06:51:10.332Z,84.58
2018-04-25T06:52:10.316Z,91.00
2018-04-25T06:53:10.294Z,90.23
2018-04-25T06:54:10.275Z,94.07
2018-04-25T06:55:10.254Z,90.38
2018-04-25T06:56:10.237Z,94.79
2018-04-25T06:57:14.725Z,94.21
2018-04-25T06:58:10.198Z,91.72
2018-04-25T06:59:10.179Z,93.06
2018-04-25T07:00:10.161Z,98.24
2018-04-25T07:01:10.141Z,92.97
2018-04-25T07:02:10.123Z,94.59
2018-04-25T07:03:10.105Z,99.01
2018-04-25T07:04:10.085Z,94.69
2018-04-25T07:05:10.065Z,94.07
2018-04-25T07:06:10.046Z,96.61
2018-04-25T07:07:10.030Z,96.61
2018-04-25T07:08:10.057Z,91.91
2018-04-25T07:09:09.989Z,90.95
2018-04-25T07:10:09.972Z,93.30
2018-04-25T07:11:09.951Z,95.51
2018-04-25T07:12:09.934Z,99.05
2018-04-25T07:13:09.916Z,99.05
2018-04-25T07:14:09.952Z,98.00
2018-04-25T07:15:09.880Z,96.27
2018-04-25T07:16:09.856Z,96.18
2018-04-25T07:17:09.838Z,99.99
2018-04-25T07:18:09.820Z,99.44
2018-04-25T07:19:09.801Z,99.24
2018-04-25T07:20:09.785Z,99.99
2018-04-25T07:21:09.765Z,99.99
2018-04-25T07:22:09.744Z,99.99
2018-04-25T07:23:09.726Z,99.99
2018-04-25T07:24:09.708Z,99.99
2018-04-25T07:25:09.687Z,99.99
2018-04-25T07:26:09.670Z,99.99
2018-04-25T07:27:09.650Z,99.77
2018-04-25T07:28:09.632Z,99.99
2018-04-25T07:29:09.614Z,99.99
2018-04-25T07:30:09.595Z,99.99
2018-04-25T07:31:09.576Z,99.99
2018-04-25T07:32:09.559Z,99.99
2018-04-25T07:33:09.538Z,99.99
2018-04-25T07:34:09.520Z,99.99
2018-04-25T07:35:12.503Z,99.99
2018-04-25T07:36:09.481Z,99.99
2018-04-25T07:37:09.464Z,99.99
2018-04-25T07:38:09.449Z,99.99
2018-04-25T07:39:09.426Z,99.99
2018-04-25T07:40:09.407Z,99.99
2018-04-25T07:41:09.389Z,99.99
2018-04-25T07:42:09.369Z,99.99
2018-04-25T07:43:09.350Z,99.99
2018-04-25T07:44:09.332Z,99.99
2018-04-25T07:45:09.313Z,99.99
2018-04-25T07:46:09.299Z,99.99
2018-04-25T07:47:09.334Z,99.99
2018-04-25T07:48:09.263Z,99.99
2018-04-25T07:49:09.240Z,98.96
2018-04-25T07:50:09.221Z,99.63
2018-04-25T07:51:09.205Z,99.99
2018-04-25T07:52:09.210Z,98.67
2018-04-25T07:53:09.166Z,99.05
2018-04-25T07:54:09.146Z,99.99
2018-04-25T07:55:09.128Z,97.81
2018-04-25T07:56:09.109Z,98.96
2018-04-25T07:57:09.091Z,98.96
2018-04-25T07:58:09.072Z,97.24
2018-04-25T07:59:09.053Z,97.52
2018-04-25T08:00:09.035Z,98.00
2018-04-25T08:01:09.017Z,97.96
2018-04-25T08:02:09.000Z,97.81
2018-04-25T08:03:08.983Z,98.96
2018-04-25T08:04:08.961Z,99.82
2018-04-25T08:05:08.947Z,99.99
2018-04-25T08:06:08.926Z,99.99
2018-04-25T08:07:08.906Z,99.99
2018-04-25T08:08:08.888Z,99.99
2018-04-25T08:09:08.870Z,99.99
2018-04-25T08:10:08.851Z,99.99
2018-04-25T08:11:08.833Z,99.99
2018-04-25T08:12:08.814Z,99.99
2018-04-25T08:13:08.796Z,99.99
2018-04-25T08:14:08.782Z,99.99
2018-04-25T08:15:08.758Z,99.99
2018-04-25T08:16:08.740Z,99.99
2018-04-25T08:17:08.722Z,99.99
2018-04-25T08:18:09.454Z,99.99
2018-04-25T08:19:08.684Z,99.99
2018-04-25T08:20:08.665Z,99.99
2018-04-25T08:21:08.648Z,99.99
2018-04-25T08:22:08.629Z,99.99
2018-04-25T08:23:08.610Z,99.99
2018-04-25T08:24:08.591Z,99.99
2018-04-25T08:25:08.575Z,99.99
2018-04-25T08:26:08.555Z,99.99
2018-04-25T08:27:08.536Z,99.99
2018-04-25T08:28:08.519Z,99.99
2018-04-25T08:29:08.499Z,99.99
2018-04-25T08:30:08.482Z,99.99
2018-04-25T08:31:08.462Z,99.99
2018-04-25T08:32:08.444Z,99.99
2018-04-25T08:33:08.425Z,99.99
2018-04-25T08:34:09.912Z,99.99
2018-04-25T08:35:08.389Z,99.99
2018-04-25T08:36:08.369Z,99.99
2018-04-25T08:37:08.351Z,99.99
2018-04-25T08:38:08.333Z,99.99
2018-04-25T08:39:08.399Z,99.99
2018-04-25T08:40:08.296Z,99.99
2018-04-25T08:41:08.278Z,99.99
2018-04-25T08:42:08.261Z,99.99
2018-04-25T08:43:08.244Z,99.99
2018-04-25T08:44:08.222Z,99.99
2018-04-25T08:45:08.233Z,99.99
2018-04-25T08:46:08.186Z,99.99
2018-04-25T08:47:08.168Z,99.99
2018-04-25T08:48:08.149Z,99.99
2018-04-25T08:49:08.131Z,99.99
2018-04-25T08:50:08.115Z,99.99
2018-04-25T08:51:08.095Z,99.99
2018-04-25T08:52:08.075Z,99.99
2018-04-25T08:53:08.058Z,99.35
2018-04-25T08:54:08.048Z,99.25
2018-04-25T08:55:08.021Z,99.73
2018-04-25T08:56:08.004Z,99.54
2018-04-25T08:57:07.986Z,99.99
2018-04-25T08:58:07.967Z,99.99
2018-04-25T08:59:07.951Z,99.92
2018-04-25T09:00:07.931Z,99.99
2018-04-25T09:01:07.913Z,99.99
2018-04-25T09:02:07.897Z,99.99
2018-04-25T09:03:07.877Z,99.99
2018-04-25T09:04:07.860Z,99.99
2018-04-25T09:05:07.840Z,99.83
2018-04-25T09:06:12.326Z,99.99
2018-04-25T09:07:07.805Z,99.73
2018-04-25T09:08:07.786Z,99.99
2018-04-25T09:09:07.768Z,99.99
2018-04-25T09:10:07.751Z,99.63
2018-04-25T09:11:07.731Z,99.83
2018-04-25T09:12:08.464Z,99.73
2018-04-25T09:13:07.702Z,99.99
2018-04-25T09:14:07.679Z,99.73
2018-04-25T09:15:07.660Z,99.99
2018-04-25T09:16:07.643Z,99.99
2018-04-25T09:17:07.624Z,99.68
2018-04-25T09:18:07.607Z,99.63
2018-04-25T09:19:07.589Z,99.99
2018-04-25T09:20:07.571Z,98.96
2018-04-25T09:21:07.553Z,99.49
2018-04-25T09:22:07.534Z,98.82
2018-04-25T09:23:07.517Z,99.40
2018-04-25T09:24:07.499Z,99.30
2018-04-25T09:25:07.482Z,99.21
2018-04-25T09:26:07.463Z,98.34
2018-04-25T09:27:07.445Z,99.21
2018-04-25T09:28:07.426Z,99.21
2018-04-25T09:29:07.412Z,98.44
2018-04-25T09:30:07.392Z,99.11
2018-04-25T09:31:07.373Z,98.44
2018-04-25T09:32:07.357Z,98.63
2018-04-25T09:33:07.338Z,97.71
2018-04-25T09:34:07.321Z,98.29
2018-04-25T09:35:07.302Z,98.87
2018-04-25T09:36:07.285Z,96.66
2018-04-25T09:37:07.268Z,98.39
2018-04-25T09:38:07.251Z,96.03
2018-04-25T09:39:07.236Z,96.12
2018-04-25T09:40:07.216Z,95.17
2018-04-25T09:41:07.202Z,95.70
2018-04-25T09:42:07.180Z,95.45
2018-04-25T09:43:07.163Z,93.53
2018-04-25T09:44:07.144Z,95.55
2018-04-25T09:45:07.128Z,89.29
2018-04-25T09:46:07.116Z,90.73
2018-04-25T09:47:07.095Z,86.02
2018-04-25T09:48:07.077Z,90.30
2018-04-25T09:49:07.064Z,91.17
2018-04-25T09:50:07.043Z,91.27
2018-04-25T09:51:07.026Z,86.16
2018-04-25T09:52:07.009Z,84.62
2018-04-25T09:53:06.991Z,83.95
2018-04-25T09:54:06.976Z,81.93
2018-04-25T09:55:06.956Z,80.00
2018-04-25T09:56:06.940Z,81.35
2018-04-25T09:57:06.924Z,80.19
2018-04-25T09:58:06.964Z,82.41
2018-04-25T09:59:06.889Z,81.93
2018-04-25T10:00:06.873Z,79.61
2018-04-25T10:01:06.859Z,79.94
2018-04-25T10:02:06.841Z,79.08
2018-04-25T10:03:06.821Z,83.51
2018-04-25T10:04:06.889Z,81.04
2018-04-25T10:05:06.789Z,77.15
2018-04-25T10:06:06.772Z,83.66
2018-04-25T10:07:06.756Z,82.45
2018-04-25T10:08:06.737Z,81.29
2018-04-25T10:09:06.722Z,76.09
2018-04-25T10:10:06.706Z,75.42
2018-04-25T10:11:06.688Z,74.88
2018-04-25T10:12:06.672Z,70.89
2018-04-25T10:13:06.655Z,71.12
2018-04-25T10:14:06.639Z,74.88
2018-04-25T10:15:07.373Z,69.67
2018-04-25T10:16:06.605Z,72.85
2018-04-25T10:17:06.606Z,70.15
2018-04-25T10:18:06.572Z,67.26
2018-04-25T10:19:06.556Z,69.38
2018-04-25T10:20:06.539Z,66.43
2018-04-25T10:21:06.522Z,67.78
2018-04-25T10:22:06.506Z,66.91
2018-04-25T10:23:06.490Z,65.95
2018-04-25T10:24:06.499Z,69.45
2018-04-25T10:25:06.458Z,63.47
2018-04-25T10:26:06.441Z,62.38
2018-04-25T10:27:06.424Z,61.71
2018-04-25T10:28:06.410Z,63.18
2018-04-25T10:29:06.397Z,61.32
2018-04-25T10:30:06.381Z,61.32
2018-04-25T10:31:06.361Z,63.57
2018-04-25T10:32:06.425Z,61.13
2018-04-25T10:33:06.329Z,61.22
2018-04-25T10:34:06.317Z,61.64
2018-04-25T10:35:06.298Z,61.35
2018-04-25T10:36:07.032Z,61.57
2018-04-25T10:37:06.269Z,59.83
2018-04-25T10:38:06.251Z,58.77
2018-04-25T10:39:06.233Z,58.70
2018-04-25T10:40:06.219Z,56.68
2018-04-25T10:41:06.204Z,56.20
2018-04-25T10:42:06.191Z,55.23
2018-04-25T10:43:06.173Z,54.36
2018-04-25T10:44:06.172Z,54.14
2018-04-25T10:45:06.142Z,55.30
2018-04-25T10:46:06.128Z,55.49
2018-04-25T10:47:06.111Z,55.10
2018-04-25T10:48:06.096Z,56.20
2018-04-25T10:49:06.081Z,54.33
2018-04-25T10:50:06.067Z,55.13
2018-04-25T10:51:06.108Z,54.46
2018-04-25T10:52:06.038Z,54.36
2018-04-25T10:53:06.022Z,54.24
2018-04-25T10:54:06.008Z,54.36
2018-04-25T10:55:05.995Z,54.75
2018-04-25T10:56:05.977Z,53.78
2018-04-25T10:57:05.963Z,53.59
2018-04-25T10:58:05.947Z,53.66
2018-04-25T10:59:05.934Z,54.58
2018-04-25T11:00:05.922Z,53.42
2018-04-25T11:01:05.903Z,51.68
2018-04-25T11:02:06.639Z,52.17
2018-04-25T11:03:05.878Z,51.29
2018-04-25T11:04:05.859Z,51.27
2018-04-25T11:05:05.849Z,51.37
2018-04-25T11:06:05.831Z,51.37
2018-04-25T11:07:05.815Z,52.14
2018-04-25T11:08:05.802Z,51.95
2018-04-25T11:09:05.788Z,52.14
2018-04-25T11:10:05.773Z,51.56
2018-04-25T11:11:05.756Z,50.79
2018-04-25T11:12:05.747Z,51.49
2018-04-25T11:13:05.729Z,49.92
2018-04-25T11:14:05.714Z,50.59
2018-04-25T11:15:05.698Z,50.33
2018-04-25T11:16:05.688Z,49.53
2018-04-25T11:17:05.670Z,50.28
2018-04-25T11:18:05.661Z,50.69
2018-04-25T11:19:05.640Z,49.12
2018-04-25T11:20:05.626Z,49.12
2018-04-25T11:21:05.610Z,49.22
2018-04-25T11:22:05.596Z,48.83
2018-04-25T11:23:05.580Z,47.89
2018-04-25T11:24:05.566Z,48.06
2018-04-25T11:25:05.551Z,47.77
2018-04-25T11:26:05.537Z,48.28
2018-04-25T11:27:05.541Z,47.22
2018-04-25T11:28:05.505Z,46.73
2018-04-25T11:29:05.493Z,46.73
2018-04-25T11:30:05.476Z,46.73
2018-04-25T11:31:05.460Z,46.25
2018-04-25T11:32:05.446Z,47.24
2018-04-25T11:33:05.438Z,46.95
2018-04-25T11:34:05.417Z,46.47
2018-04-25T11:35:05.404Z,46.75
2018-04-25T11:36:05.386Z,48.11
2018-04-25T11:37:05.372Z,49.15
2018-04-25T11:38:05.358Z,50.79
2018-04-25T11:39:05.341Z,51.27
2018-04-25T11:40:05.327Z,52.43
2018-04-25T11:41:05.318Z,54.17
2018-04-25T11:42:05.304Z,53.85
2018-04-25T11:43:05.282Z,52.98
2018-04-25T11:44:05.269Z,52.59
2018-04-25T11:45:05.255Z,54.33
2018-04-25T11:46:05.239Z,54.75
2018-04-25T11:47:05.245Z,54.05
2018-04-25T11:48:05.209Z,52.69
2018-04-25T11:49:05.195Z,52.50
2018-04-25T11:50:05.180Z,52.89
2018-04-25T11:51:05.164Z,54.14
2018-04-25T11:52:05.153Z,56.26
2018-04-25T11:53:05.136Z,56.62
2018-04-25T11:54:05.127Z,57.52
2018-04-25T11:55:05.104Z,57.71
2018-04-25T11:56:05.090Z,58.42
2018-04-25T11:57:05.075Z,56.65
2018-04-25T11:58:05.059Z,58.26
2018-04-25T11:59:05.044Z,59.42
2018-04-25T12:00:05.031Z,58.58
2018-04-25T12:01:05.015Z,58.10
2018-04-25T12:02:04.999Z,58.51
2018-04-25T12:03:04.986Z,57.16
2018-04-25T12:04:06.472Z,58.70
2018-04-25T12:05:05.038Z,57.26
2018-04-25T12:06:04.941Z,56.39
2018-04-25T12:07:04.924Z,57.14
2018-04-25T12:08:04.911Z,57.71
2018-04-25T12:09:04.895Z,58.58
2018-04-25T12:10:04.881Z,58.12
2018-04-25T12:11:04.867Z,59.77
2018-04-25T12:12:04.852Z,59.58
2018-04-25T12:13:04.898Z,58.12
2018-04-25T12:14:04.824Z,58.42
2018-04-25T12:15:04.808Z,58.97
2018-04-25T12:16:04.795Z,58.97
2018-04-25T12:17:04.788Z,58.77
2018-04-25T12:18:04.769Z,56.36
2018-04-25T12:19:04.749Z,56.16
2018-04-25T12:20:04.735Z,55.20
2018-04-25T12:21:04.720Z,55.78
2018-04-25T12:22:04.706Z,56.58
2018-04-25T12:23:04.691Z,56.20
2018-04-25T12:24:04.678Z,56.36
2018-04-25T12:25:04.663Z,56.65
2018-04-25T12:26:04.650Z,58.26
2018-04-25T12:27:04.633Z,58.26
2018-04-25T12:28:04.621Z,58.75
2018-04-25T12:29:04.605Z,59.25
2018-04-25T12:30:04.591Z,56.56
2018-04-25T12:31:04.575Z,57.71
2018-04-25T12:32:04.565Z,59.25
2018-04-25T12:33:04.545Z,57.90
2018-04-25T12:34:04.535Z,57.71
2018-04-25T12:35:04.516Z,57.42
2018-04-25T12:36:04.503Z,57.62
2018-04-25T12:37:04.488Z,57.62
2018-04-25T12:38:04.473Z,58.39
2018-04-25T12:39:04.457Z,58.97
2018-04-25T12:40:04.444Z,58.68
2018-04-25T12:41:04.429Z,58.39
2018-04-25T12:42:04.414Z,58.39
2018-04-25T12:43:04.399Z,59.83
2018-04-25T12:44:04.385Z,59.74
2018-04-25T12:45:04.372Z,60.03
2018-04-25T12:46:04.357Z,59.74
2018-04-25T12:47:04.341Z,59.61
2018-04-25T12:48:04.326Z,60.38
2018-04-25T12:49:04.312Z,59.80
2018-04-25T12:50:04.302Z,61.47
2018-04-25T12:51:04.281Z,60.71
2018-04-25T12:52:04.269Z,59.64